KBKT Airport (Allen C Perkinson Blackstone Aaf) Information

FAA: BKT - ICAO: KBKT

KBKT Airport Location

State Virginia
County Nottoway
City Blackstone
KBKT Airport is 2 miles east of Blackstone, VA.
Latitude 37-04-29.1624N
Longitude 077-57-23.7544W
Elevation 437ft

KBKT Airport METARs

METAR KBKT 302335Z AUTO 03016G28KT 5SM BR OVC008 14/14 A2981 RMK AO1 T01430143
Altimeter 29.81"
Temperature 14.3°C (57.7°F)
Wind 30° at 16KT with gusts to 28KT
Clouds overcast at 800ft
Visibility 5.0mi
Time observed: 2022-09-30T23:35:00Z

KBKT Airport Details

Status Operational
Activation August 1937
Ownership Military - Army
Usage Public
Chart WASHINGTON
ATC on-site Yes
Beacon schedule sunset-sunrise
Beacon color clear green

KBKT Airport Contacts

Owner TOWN OF BLACKSTONE & US ARMY
Owner address 100 W ELM ST, BLACKSTONE, VA 23824
Owner phone 434-292-7251
Manager K D SCOTT
Manager address RT 2 BOX 354A, AMHERST, VA 24521
Manager phone 804-946-2673

KBKT Airport (Allen C Perkinson Blackstone Aaf) Radio Frequencies

KBKT (Airport) Radio Frequencies

UNICOM N/A
Common traffic advisory frequency (CTAF) 126.2